sensor_id;sensor_type;location;lat;lon;timestamp;pressure;altitude;pressure_sealevel;temperature;humidity
21109;BME280;10712;52.944;9.098;2023-01-30T00:00:34;101189.09;;;11.86;52.98
21109;BME280;10712;52.944;9.098;2023-01-30T00:03:00;101203.72;;;12.10;52.66
21109;BME280;10712;52.944;9.098;2023-01-30T00:05:26;101186.56;;;11.98;52.98
21109;BME280;10712;52.944;9.098;2023-01-30T00:07:52;101172.72;;;11.92;53.25
21109;BME280;10712;52.944;9.098;2023-01-30T00:10:18;101174.59;;;12.05;53.01
21109;BME280;10712;52.944;9.098;2023-01-30T00:12:43;101152.19;;;12.08;52.95
21109;BME280;10712;52.944;9.098;2023-01-30T00:15:09;101149.59;;;12.22;52.53
21109;BME280;10712;52.944;9.098;2023-01-30T00:17:35;101137.09;;;12.22;52.50
21109;BME280;10712;52.944;9.098;2023-01-30T00:20:02;101138.69;;;12.25;52.64
21109;BME280;10712;52.944;9.098;2023-01-30T00:22:27;101125.75;;;12.33;52.27
21109;BME280;10712;52.944;9.098;2023-01-30T00:24:53;101129.56;;;12.29;52.53
21109;BME280;10712;52.944;9.098;2023-01-30T00:27:19;101121.00;;;12.38;52.50
21109;BME280;10712;52.944;9.098;2023-01-30T00:29:45;101114.66;;;12.25;52.53
21109;BME280;10712;52.944;9.098;2023-01-30T00:32:11;101120.63;;;12.30;52.82
21109;BME280;10712;52.944;9.098;2023-01-30T00:34:39;101107.84;;;12.35;52.73
21109;BME280;10712;52.944;9.098;2023-01-30T00:37:05;101097.31;;;12.32;52.78
21109;BME280;10712;52.944;9.098;2023-01-30T00:39:30;101096.19;;;12.36;52.87
21109;BME280;10712;52.944;9.098;2023-01-30T00:41:56;101093.94;;;12.44;52.71
21109;BME280;10712;52.944;9.098;2023-01-30T00:44:41;101083.25;;;12.44;52.94
21109;BME280;10712;52.944;9.098;2023-01-30T00:47:25;101061.25;;;12.39;53.06
21109;BME280;10712;52.944;9.098;2023-01-30T00:49:52;101051.91;;;12.46;53.00
21109;BME280;10712;52.944;9.098;2023-01-30T00:52:18;101050.56;;;12.39;53.30
21109;BME280;10712;52.944;9.098;2023-01-30T00:54:44;101041.81;;;12.37;53.74
21109;BME280;10712;52.944;9.098;2023-01-30T00:57:10;101048.09;;;12.36;53.65
21109;BME280;10712;52.944;9.098;2023-01-30T00:59:36;101029.59;;;12.47;53.52
21109;BME280;10712;52.944;9.098;2023-01-30T01:02:02;101031.03;;;12.53;53.19
21109;BME280;10712;52.944;9.098;2023-01-30T01:04:27;101003.81;;;12.46;53.83
21109;BME280;10712;52.944;9.098;2023-01-30T01:06:53;101007.81;;;12.39;53.92
21109;BME280;10712;52.944;9.098;2023-01-30T01:09:19;101005.38;;;12.50;53.87
21109;BME280;10712;52.944;9.098;2023-01-30T01:11:45;100992.97;;;12.49;53.86
21109;BME280;10712;52.944;9.098;2023-01-30T01:14:10;100974.03;;;12.38;54.64
21109;BME280;10712;52.944;9.098;2023-01-30T01:16:36;100982.84;;;12.40;54.36
21109;BME280;10712;52.944;9.098;2023-01-30T01:19:03;100978.81;;;12.47;54.55
21109;BME280;10712;52.944;9.098;2023-01-30T01:21:29;100972.63;;;12.47;54.46
21109;BME280;10712;52.944;9.098;2023-01-30T01:23:58;100973.09;;;12.53;54.53
21109;BME280;10712;52.944;9.098;2023-01-30T01:26:24;100965.00;;;12.55;54.58
21109;BME280;10712;52.944;9.098;2023-01-30T01:28:57;100948.06;;;12.69;54.35
21109;BME280;10712;52.944;9.098;2023-01-30T01:31:24;100954.94;;;12.58;54.61
21109;BME280;10712;52.944;9.098;2023-01-30T01:33:50;100938.16;;;12.71;54.49
21109;BME280;10712;52.944;9.098;2023-01-30T01:36:17;100940.06;;;12.69;54.58
21109;BME280;10712;52.944;9.098;2023-01-30T01:38:43;100938.06;;;12.72;54.57
21109;BME280;10712;52.944;9.098;2023-01-30T01:41:16;100940.06;;;12.69;54.82
21109;BME280;10712;52.944;9.098;2023-01-30T01:44:04;100922.88;;;12.58;54.94
21109;BME280;10712;52.944;9.098;2023-01-30T01:46:54;100920.00;;;12.76;54.75
21109;BME280;10712;52.944;9.098;2023-01-30T01:49:32;100908.72;;;12.85;54.77
21109;BME280;10712;52.944;9.098;2023-01-30T01:52:10;100899.34;;;12.92;54.70
21109;BME280;10712;52.944;9.098;2023-01-30T01:54:57;100889.06;;;12.86;54.86
21109;BME280;10712;52.944;9.098;2023-01-30T01:57:48;100883.34;;;12.78;54.96
21109;BME280;10712;52.944;9.098;2023-01-30T02:00:18;100886.91;;;12.91;55.03
21109;BME280;10712;52.944;9.098;2023-01-30T02:03:07;100895.34;;;12.85;55.03
21109;BME280;10712;52.944;9.098;2023-01-30T02:05:42;100876.69;;;12.97;54.79
21109;BME280;10712;52.944;9.098;2023-01-30T02:08:17;100884.78;;;12.96;54.67
21109;BME280;10712;52.944;9.098;2023-01-30T02:11:07;100871.53;;;12.94;54.88
21109;BME280;10712;52.944;9.098;2023-01-30T02:13:36;100864.09;;;13.12;54.81
21109;BME280;10712;52.944;9.098;2023-01-30T02:16:05;100878.44;;;13.11;54.83
21109;BME280;10712;52.944;9.098;2023-01-30T02:18:34;100870.34;;;12.86;55.58
21109;BME280;10712;52.944;9.098;2023-01-30T02:33:25;100844.03;;;13.19;55.73
21109;BME280;10712;52.944;9.098;2023-01-30T02:39:22;100828.56;;;13.10;56.42
21109;BME280;10712;52.944;9.098;2023-01-30T02:47:55;100806.78;;;13.16;56.64
21109;BME280;10712;52.944;9.098;2023-01-30T02:50:40;100816.44;;;13.19;56.60
21109;BME280;10712;52.944;9.098;2023-01-30T02:53:09;100803.69;;;13.22;56.42
21109;BME280;10712;52.944;9.098;2023-01-30T02:55:40;100811.75;;;13.08;56.80
21109;BME280;10712;52.944;9.098;2023-01-30T02:58:07;100806.03;;;13.14;57.08
21109;BME280;10712;52.944;9.098;2023-01-30T03:09:58;100774.22;;;13.10;57.10
21109;BME280;10712;52.944;9.098;2023-01-30T03:15:10;100755.44;;;13.24;56.92
21109;BME280;10712;52.944;9.098;2023-01-30T03:17:41;100761.22;;;13.30;57.01
21109;BME280;10712;52.944;9.098;2023-01-30T03:20:14;100744.84;;;13.35;56.83
21109;BME280;10712;52.944;9.098;2023-01-30T03:22:41;100739.19;;;13.27;57.18
21109;BME280;10712;52.944;9.098;2023-01-30T03:25:08;100739.38;;;13.36;57.12
21109;BME280;10712;52.944;9.098;2023-01-30T03:27:34;100723.75;;;13.30;57.48
21109;BME280;10712;52.944;9.098;2023-01-30T03:30:01;100723.34;;;13.36;57.40
21109;BME280;10712;52.944;9.098;2023-01-30T03:32:27;100726.75;;;13.38;57.62
21109;BME280;10712;52.944;9.098;2023-01-30T03:34:53;100717.66;;;13.28;57.71
21109;BME280;10712;52.944;9.098;2023-01-30T03:37:19;100723.00;;;13.16;58.41
21109;BME280;10712;52.944;9.098;2023-01-30T03:39:45;100727.78;;;12.98;58.99
21109;BME280;10712;52.944;9.098;2023-01-30T03:42:14;100721.19;;;13.16;58.63
21109;BME280;10712;52.944;9.098;2023-01-30T03:44:40;100712.59;;;13.49;57.64
21109;BME280;10712;52.944;9.098;2023-01-30T03:47:06;100707.94;;;13.40;58.05
21109;BME280;10712;52.944;9.098;2023-01-30T03:49:32;100718.41;;;13.30;58.34
21109;BME280;10712;52.944;9.098;2023-01-30T03:51:58;100716.69;;;13.29;58.47
21109;BME280;10712;52.944;9.098;2023-01-30T03:54:24;100717.44;;;13.31;58.47
21109;BME280;10712;52.944;9.098;2023-01-30T03:56:50;100719.28;;;13.31;58.54
21109;BME280;10712;52.944;9.098;2023-01-30T03:59:16;100705.25;;;13.53;58.05
21109;BME280;10712;52.944;9.098;2023-01-30T04:01:48;100694.41;;;13.67;57.70
21109;BME280;10712;52.944;9.098;2023-01-30T04:04:14;100696.25;;;13.54;58.13
21109;BME280;10712;52.944;9.098;2023-01-30T04:06:41;100717.97;;;13.49;58.50
21109;BME280;10712;52.944;9.098;2023-01-30T04:09:07;100709.84;;;13.38;58.78
21109;BME280;10712;52.944;9.098;2023-01-30T04:11:38;100711.09;;;13.58;58.25
21109;BME280;10712;52.944;9.098;2023-01-30T04:14:04;100696.25;;;13.54;58.27
21109;BME280;10712;52.944;9.098;2023-01-30T04:16:33;100694.59;;;13.64;58.07
21109;BME280;10712;52.944;9.098;2023-01-30T04:19:17;100687.16;;;13.44;58.77
21109;BME280;10712;52.944;9.098;2023-01-30T04:21:44;100701.31;;;13.20;59.61
21109;BME280;10712;52.944;9.098;2023-01-30T04:24:09;100702.25;;;13.45;59.29
21109;BME280;10712;52.944;9.098;2023-01-30T04:26:35;100694.00;;;13.48;59.04
21109;BME280;10712;52.944;9.098;2023-01-30T04:29:01;100693.13;;;13.60;58.91
21109;BME280;10712;52.944;9.098;2023-01-30T04:31:28;100685.00;;;13.49;59.44
21109;BME280;10712;52.944;9.098;2023-01-30T04:34:20;100685.63;;;13.65;59.14
21109;BME280;10712;52.944;9.098;2023-01-30T04:36:46;100693.13;;;13.60;59.26
21109;BME280;10712;52.944;9.098;2023-01-30T04:39:12;100694.41;;;13.67;59.08
21109;BME280;10712;52.944;9.098;2023-01-30T04:41:39;100694.19;;;13.57;59.58
21109;BME280;10712;52.944;9.098;2023-01-30T04:44:05;100703.91;;;13.71;59.26
21109;BME280;10712;52.944;9.098;2023-01-30T04:47:09;100705.97;;;13.67;59.37
21109;BME280;10712;52.944;9.098;2023-01-30T04:49:35;100701.06;;;13.61;59.83
21109;BME280;10712;52.944;9.098;2023-01-30T04:52:03;100693.53;;;13.66;59.91
21109;BME280;10712;52.944;9.098;2023-01-30T04:54:28;100685.28;;;13.82;59.37
21109;BME280;10712;52.944;9.098;2023-01-30T04:56:55;100687.50;;;13.88;59.06
21109;BME280;10712;52.944;9.098;2023-01-30T04:59:22;100695.97;;;13.82;59.76
21109;BME280;10712;52.944;9.098;2023-01-30T05:01:49;100706.13;;;13.77;59.65
21109;BME280;10712;52.944;9.098;2023-01-30T05:04:15;100704.13;;;13.80;59.77
21109;BME280;10712;52.944;9.098;2023-01-30T05:06:41;100721.34;;;13.89;59.45
21109;BME280;10712;52.944;9.098;2023-01-30T05:09:06;100711.69;;;13.87;59.70
21109;BME280;10712;52.944;9.098;2023-01-30T05:11:33;100708.31;;;13.72;60.24
21109;BME280;10712;52.944;9.098;2023-01-30T05:13:59;100710.00;;;13.86;59.64
21109;BME280;10712;52.944;9.098;2023-01-30T05:16:25;100711.75;;;13.61;60.36
21109;BME280;10712;52.944;9.098;2023-01-30T05:18:51;100692.69;;;13.66;60.06
21109;BME280;10712;52.944;9.098;2023-01-30T05:21:24;100705.41;;;13.75;59.76
21109;BME280;10712;52.944;9.098;2023-01-30T05:23:53;100700.34;;;13.83;59.61
21109;BME280;10712;52.944;9.098;2023-01-30T05:26:19;100690.53;;;13.71;59.94
21109;BME280;10712;52.944;9.098;2023-01-30T05:28:54;100704.47;;;13.76;59.66
21109;BME280;10712;52.944;9.098;2023-01-30T05:31:20;100705.69;;;13.83;59.47
21109;BME280;10712;52.944;9.098;2023-01-30T05:33:48;100700.59;;;13.80;59.71
21109;BME280;10712;52.944;9.098;2023-01-30T05:36:18;100701.84;;;13.87;59.32
21109;BME280;10712;52.944;9.098;2023-01-30T05:38:45;100705.69;;;13.83;59.47
21109;BME280;10712;52.944;9.098;2023-01-30T05:41:13;100701.69;;;13.52;60.10
21109;BME280;10712;52.944;9.098;2023-01-30T05:43:39;100712.59;;;13.49;60.33
21109;BME280;10712;52.944;9.098;2023-01-30T05:46:06;100701.00;;;13.87;59.16
21109;BME280;10712;52.944;9.098;2023-01-30T05:48:34;100704.22;;;13.79;58.92
21109;BME280;10712;52.944;9.098;2023-01-30T05:51:00;100704.88;;;13.70;58.57
21109;BME280;10712;52.944;9.098;2023-01-30T05:53:30;100702.31;;;13.56;59.03
21109;BME280;10712;52.944;9.098;2023-01-30T05:55:59;100707.47;;;13.59;58.08
21109;BME280;10712;52.944;9.098;2023-01-30T05:58:26;100703.06;;;13.70;57.42
21109;BME280;10712;52.944;9.098;2023-01-30T06:00:53;100701.38;;;13.57;57.72
21109;BME280;10712;52.944;9.098;2023-01-30T06:03:19;100703.59;;;13.63;57.43
21109;BME280;10712;52.944;9.098;2023-01-30T06:05:45;100707.25;;;13.49;57.46
21109;BME280;10712;52.944;9.098;2023-01-30T06:08:11;100709.19;;;13.60;56.83
21109;BME280;10712;52.944;9.098;2023-01-30T06:10:37;100718.50;;;13.67;56.49
21109;BME280;10712;52.944;9.098;2023-01-30T06:13:03;100706.81;;;13.68;55.96
21109;BME280;10712;52.944;9.098;2023-01-30T06:15:29;100717.97;;;13.49;56.18
21109;BME280;10712;52.944;9.098;2023-01-30T06:17:55;100723.44;;;13.60;55.75
21109;BME280;10712;52.944;9.098;2023-01-30T06:20:21;100719.25;;;13.56;55.90
21109;BME280;10712;52.944;9.098;2023-01-30T06:22:49;100723.34;;;13.62;55.41
21109;BME280;10712;52.944;9.098;2023-01-30T06:25:15;100725.69;;;13.54;55.60
21109;BME280;10712;52.944;9.098;2023-01-30T06:27:41;100725.69;;;13.54;55.58
21109;BME280;10712;52.944;9.098;2023-01-30T06:30:08;100719.78;;;13.74;55.08
21109;BME280;10712;52.944;9.098;2023-01-30T06:32:34;100716.03;;;13.64;54.83
21109;BME280;10712;52.944;9.098;2023-01-30T06:35:00;100722.78;;;13.57;55.19
21109;BME280;10712;52.944;9.098;2023-01-30T06:37:26;100723.53;;;13.59;55.13
21109;BME280;10712;52.944;9.098;2023-01-30T06:39:51;100728.13;;;13.57;54.88
21109;BME280;10712;52.944;9.098;2023-01-30T06:42:17;100723.31;;;13.49;54.98
21109;BME280;10712;52.944;9.098;2023-01-30T06:44:43;100723.13;;;13.52;54.61
21109;BME280;10712;52.944;9.098;2023-01-30T06:47:09;100721.81;;;13.58;54.54
21109;BME280;10712;52.944;9.098;2023-01-30T06:49:34;100728.25;;;13.43;54.64
21109;BME280;10712;52.944;9.098;2023-01-30T06:52:00;100736.81;;;13.22;55.01
21109;BME280;10712;52.944;9.098;2023-01-30T06:54:26;100735.75;;;13.37;54.26
21109;BME280;10712;52.944;9.098;2023-01-30T06:56:52;100736.94;;;13.33;54.18
21109;BME280;10712;52.944;9.098;2023-01-30T06:59:18;100745.16;;;13.56;53.69
21109;BME280;10712;52.944;9.098;2023-01-30T07:01:44;100738.00;;;13.44;53.64
21109;BME280;10712;52.944;9.098;2023-01-30T07:04:10;100739.63;;;13.33;53.60
21109;BME280;10712;52.944;9.098;2023-01-30T07:06:35;100737.03;;;13.19;53.88
21109;BME280;10712;52.944;9.098;2023-01-30T07:09:01;100734.25;;;13.33;53.50
21109;BME280;10712;52.944;9.098;2023-01-30T07:11:27;100744.31;;;13.17;53.93
21109;BME280;10712;52.944;9.098;2023-01-30T07:13:53;100732.75;;;13.29;53.49
21109;BME280;10712;52.944;9.098;2023-01-30T07:16:19;100747.75;;;13.19;53.00
21109;BME280;10712;52.944;9.098;2023-01-30T07:18:45;100754.53;;;12.98;53.50
21109;BME280;10712;52.944;9.098;2023-01-30T07:21:10;100750.66;;;13.02;53.48
21109;BME280;10712;52.944;9.098;2023-01-30T07:23:36;100755.88;;;13.18;53.09
21109;BME280;10712;52.944;9.098;2023-01-30T07:26:04;100743.25;;;13.32;52.54
21109;BME280;10712;52.944;9.098;2023-01-30T07:28:30;100753.69;;;13.10;52.89
21109;BME280;10712;52.944;9.098;2023-01-30T07:31:00;100758.63;;;13.16;53.08
21109;BME280;10712;52.944;9.098;2023-01-30T07:33:26;100757.13;;;13.12;53.07
21109;BME280;10712;52.944;9.098;2023-01-30T07:35:52;100754.81;;;13.20;52.49
21109;BME280;10712;52.944;9.098;2023-01-30T07:38:18;100753.56;;;12.99;52.76
21109;BME280;10712;52.944;9.098;2023-01-30T07:40:44;100754.06;;;13.18;52.53
21109;BME280;10712;52.944;9.098;2023-01-30T07:43:12;100761.38;;;13.02;52.55
21109;BME280;10712;52.944;9.098;2023-01-30T07:45:47;100754.88;;;13.06;52.70
21109;BME280;10712;52.944;9.098;2023-01-30T07:48:17;100760.34;;;13.17;52.27
21109;BME280;10712;52.944;9.098;2023-01-30T07:50:43;100762.41;;;13.26;52.14
21109;BME280;10712;52.944;9.098;2023-01-30T07:53:13;100777.63;;;12.99;52.58
21109;BME280;10712;52.944;9.098;2023-01-30T07:55:40;100772.34;;;13.24;52.10
21109;BME280;10712;52.944;9.098;2023-01-30T07:58:12;100768.00;;;13.09;52.50
21109;BME280;10712;52.944;9.098;2023-01-30T08:00:39;100764.00;;;13.29;52.03
21109;BME280;10712;52.944;9.098;2023-01-30T08:03:05;100767.22;;;13.34;51.85
21109;BME280;10712;52.944;9.098;2023-01-30T08:05:31;100775.56;;;13.29;51.91
21109;BME280;10712;52.944;9.098;2023-01-30T08:07:57;100769.34;;;13.41;51.56
21109;BME280;10712;52.944;9.098;2023-01-30T08:10:23;100765.94;;;13.39;51.85
21109;BME280;10712;52.944;9.098;2023-01-30T08:12:49;100777.50;;;13.40;51.90
21109;BME280;10712;52.944;9.098;2023-01-30T08:15:16;100760.78;;;13.36;51.72
21109;BME280;10712;52.944;9.098;2023-01-30T08:17:42;100761.44;;;13.53;51.36
21109;BME280;10712;52.944;9.098;2023-01-30T08:20:08;100763.25;;;13.39;51.32
21109;BME280;10712;52.944;9.098;2023-01-30T08:22:34;100765.28;;;13.49;51.43
21109;BME280;10712;52.944;9.098;2023-01-30T08:25:00;100771.50;;;13.62;51.25
21109;BME280;10712;52.944;9.098;2023-01-30T08:27:26;100767.97;;;13.74;51.11
21109;BME280;10712;52.944;9.098;2023-01-30T08:29:52;100772.56;;;13.72;51.24
21109;BME280;10712;52.944;9.098;2023-01-30T08:32:21;100765.28;;;13.74;51.03
21109;BME280;10712;52.944;9.098;2023-01-30T08:35:01;100772.59;;;13.47;51.65
21109;BME280;10712;52.944;9.098;2023-01-30T08:37:27;100779.31;;;13.65;51.71
21109;BME280;10712;52.944;9.098;2023-01-30T08:39:53;100778.13;;;13.44;51.32
21109;BME280;10712;52.944;9.098;2023-01-30T08:42:19;100765.91;;;13.77;50.76
21109;BME280;10712;52.944;9.098;2023-01-30T08:44:44;100767.56;;;13.55;51.41
21109;BME280;10712;52.944;9.098;2023-01-30T08:47:10;100761.00;;;13.59;51.09
21109;BME280;10712;52.944;9.098;2023-01-30T08:49:36;100771.38;;;13.51;50.73
21109;BME280;10712;52.944;9.098;2023-01-30T08:52:02;100777.94;;;13.34;51.22
21109;BME280;10712;52.944;9.098;2023-01-30T08:54:27;100773.34;;;13.61;50.41
21109;BME280;10712;52.944;9.098;2023-01-30T08:56:53;100785.00;;;13.73;50.58
21109;BME280;10712;52.944;9.098;2023-01-30T08:59:19;100784.63;;;13.90;50.16
21109;BME280;10712;52.944;9.098;2023-01-30T09:01:45;100765.03;;;13.77;50.28
21109;BME280;10712;52.944;9.098;2023-01-30T09:04:10;100766.31;;;13.84;49.83
21109;BME280;10712;52.944;9.098;2023-01-30T09:06:36;100776.19;;;13.84;49.68
21109;BME280;10712;52.944;9.098;2023-01-30T09:09:02;100778.56;;;13.88;49.54
21109;BME280;10712;52.944;9.098;2023-01-30T09:11:28;100763.78;;;13.83;49.78
21109;BME280;10712;52.944;9.098;2023-01-30T09:13:54;100759.00;;;13.99;49.51
21109;BME280;10712;52.944;9.098;2023-01-30T09:16:19;100754.06;;;14.05;49.46
21109;BME280;10712;52.944;9.098;2023-01-30T09:18:45;100758.16;;;13.98;49.83
21109;BME280;10712;52.944;9.098;2023-01-30T09:21:13;100763.88;;;14.17;49.22
21109;BME280;10712;52.944;9.098;2023-01-30T09:23:39;100772.50;;;13.97;49.55
21109;BME280;10712;52.944;9.098;2023-01-30T09:26:05;100766.28;;;13.97;49.63
21109;BME280;10712;52.944;9.098;2023-01-30T09:28:32;100767.69;;;14.02;49.49
21109;BME280;10712;52.944;9.098;2023-01-30T09:30:59;100764.78;;;14.05;49.45
21109;BME280;10712;52.944;9.098;2023-01-30T09:33:25;100759.44;;;14.05;49.60
21109;BME280;10712;52.944;9.098;2023-01-30T09:35:51;100769.84;;;13.85;49.70
21109;BME280;10712;52.944;9.098;2023-01-30T09:38:18;100790.75;;;13.92;50.21
21109;BME280;10712;52.944;9.098;2023-01-30T09:43:28;100778.88;;;13.71;51.15
21109;BME280;10712;52.944;9.098;2023-01-30T09:46:13;100780.50;;;13.48;52.10
21109;BME280;10712;52.944;9.098;2023-01-30T09:49:52;100777.72;;;13.75;51.56
21109;BME280;10712;52.944;9.098;2023-01-30T09:55:39;100789.91;;;13.79;51.40
21109;BME280;10712;52.944;9.098;2023-01-30T09:58:16;100801.06;;;13.73;51.75
21109;BME280;10712;52.944;9.098;2023-01-30T10:00:44;100804.56;;;13.86;51.28
21109;BME280;10712;52.944;9.098;2023-01-30T10:03:28;100821.19;;;13.66;51.75
21109;BME280;10712;52.944;9.098;2023-01-30T10:06:03;100807.69;;;13.55;52.55
21109;BME280;10712;52.944;9.098;2023-01-30T10:12:00;100773.88;;;13.54;52.21
21109;BME280;10712;52.944;9.098;2023-01-30T10:14:54;100778.34;;;13.53;52.19
21109;BME280;10712;52.944;9.098;2023-01-30T10:17:55;100792.56;;;13.28;53.27
21109;BME280;10712;52.944;9.098;2023-01-30T10:20:38;100779.22;;;13.54;52.85
21109;BME280;10712;52.944;9.098;2023-01-30T10:23:21;100789.22;;;13.12;54.00
21109;BME280;10712;52.944;9.098;2023-01-30T10:25:56;100762.59;;;13.49;53.44
21109;BME280;10712;52.944;9.098;2023-01-30T10:28:40;100767.00;;;13.62;52.86
21109;BME280;10712;52.944;9.098;2023-01-30T10:31:15;100764.13;;;13.27;52.48
21109;BME280;10712;52.944;9.098;2023-01-30T10:34:16;100756.28;;;13.50;51.75
21109;BME280;10712;52.944;9.098;2023-01-30T10:37:02;100755.00;;;13.68;51.50
21109;BME280;10712;52.944;9.098;2023-01-30T10:39:57;100742.47;;;13.81;51.18
21109;BME280;10712;52.944;9.098;2023-01-30T10:42:40;100755.44;;;13.62;51.59
21109;BME280;10712;52.944;9.098;2023-01-30T10:45:18;100752.03;;;13.60;51.20
21109;BME280;10712;52.944;9.098;2023-01-30T10:54:43;100742.09;;;13.98;51.22
21109;BME280;10712;52.944;9.098;2023-01-30T10:57:36;100730.72;;;14.07;51.36
21109;BME280;10712;52.944;9.098;2023-01-30T11:00:21;100755.84;;;13.81;51.77
21109;BME280;10712;52.944;9.098;2023-01-30T11:03:14;100732.16;;;13.88;51.24
21109;BME280;10712;52.944;9.098;2023-01-30T11:05:52;100733.41;;;13.46;51.89
21109;BME280;10712;52.944;9.098;2023-01-30T11:08:27;100737.22;;;13.67;51.77
21109;BME280;10712;52.944;9.098;2023-01-30T11:10:55;100752.22;;;13.57;52.08
21109;BME280;10712;52.944;9.098;2023-01-30T11:13:32;100739.50;;;13.48;53.10
21109;BME280;10712;52.944;9.098;2023-01-30T11:16:07;100764.38;;;13.10;54.50
21109;BME280;10712;52.944;9.098;2023-01-30T11:18:46;100732.41;;;13.21;53.94
21109;BME280;10712;52.944;9.098;2023-01-30T11:21:25;100751.16;;;13.21;53.91
21109;BME280;10712;52.944;9.098;2023-01-30T11:23:53;100730.41;;;13.37;53.83
21109;BME280;10712;52.944;9.098;2023-01-30T11:26:24;100725.06;;;13.25;54.20
21109;BME280;10712;52.944;9.098;2023-01-30T11:28:54;100713.06;;;13.43;54.00
21109;BME280;10712;52.944;9.098;2023-01-30T11:31:29;100710.06;;;13.48;54.05
21109;BME280;10712;52.944;9.098;2023-01-30T11:34:02;100735.22;;;13.45;54.70
21109;BME280;10712;52.944;9.098;2023-01-30T11:36:32;100725.47;;;13.44;54.47
21109;BME280;10712;52.944;9.098;2023-01-30T11:41:43;100734.47;;;13.43;54.14
21109;BME280;10712;52.944;9.098;2023-01-30T11:44:30;100748.16;;;13.64;53.30
21109;BME280;10712;52.944;9.098;2023-01-30T11:47:06;100753.03;;;13.95;52.78
21109;BME280;10712;52.944;9.098;2023-01-30T11:49:38;100749.88;;;13.65;52.93
21109;BME280;10712;52.944;9.098;2023-01-30T11:52:06;100749.78;;;14.15;51.84
21109;BME280;10712;52.944;9.098;2023-01-30T11:54:40;100746.38;;;14.37;51.75
21109;BME280;10712;52.944;9.098;2023-01-30T11:57:17;100740.31;;;14.23;52.33
21109;BME280;10712;52.944;9.098;2023-01-30T11:59:58;100722.69;;;14.44;51.46
21109;BME280;10712;52.944;9.098;2023-01-30T12:02:34;100731.63;;;14.55;51.44
21109;BME280;10712;52.944;9.098;2023-01-30T12:05:15;100712.03;;;14.66;51.35
21109;BME280;10712;52.944;9.098;2023-01-30T12:07:44;100711.44;;;14.02;50.63
21109;BME280;10712;52.944;9.098;2023-01-30T12:10:29;100704.56;;;14.35;50.48
21109;BME280;10712;52.944;9.098;2023-01-30T12:13:23;100705.41;;;14.59;50.44
21109;BME280;10712;52.944;9.098;2023-01-30T12:19:32;100717.25;;;14.91;50.06
21109;BME280;10712;52.944;9.098;2023-01-30T12:25:08;100713.59;;;14.92;49.94
21109;BME280;10712;52.944;9.098;2023-01-30T12:31:12;100712.09;;;14.88;49.38
21109;BME280;10712;52.944;9.098;2023-01-30T12:33:40;100708.91;;;14.72;49.44
21109;BME280;10712;52.944;9.098;2023-01-30T12:36:52;100716.69;;;14.75;49.20
21109;BME280;10712;52.944;9.098;2023-01-30T12:42:38;100714.50;;;14.69;49.59
21109;BME280;10712;52.944;9.098;2023-01-30T12:45:24;100718.34;;;14.89;49.48
21109;BME280;10712;52.944;9.098;2023-01-30T12:50:45;100720.91;;;14.90;48.97
21109;BME280;10712;52.944;9.098;2023-01-30T13:02:17;100733.72;;;14.98;48.79
21109;BME280;10712;52.944;9.098;2023-01-30T13:08:30;100763.16;;;14.76;49.67
21109;BME280;10712;52.944;9.098;2023-01-30T13:23:47;100817.47;;;14.43;51.54
21109;BME280;10712;52.944;9.098;2023-01-30T13:26:29;100824.25;;;14.59;51.39
21109;BME280;10712;52.944;9.098;2023-01-30T13:29:05;100832.69;;;14.66;51.30
21109;BME280;10712;52.944;9.098;2023-01-30T13:31:43;100822.56;;;14.46;51.04
21109;BME280;10712;52.944;9.098;2023-01-30T13:34:32;100828.03;;;14.57;50.92
21109;BME280;10712;52.944;9.098;2023-01-30T13:37:10;100820.44;;;14.38;50.56
21109;BME280;10712;52.944;9.098;2023-01-30T13:39:58;100828.19;;;14.43;50.03
21109;BME280;10712;52.944;9.098;2023-01-30T13:42:34;100839.72;;;14.56;49.57
21109;BME280;10712;52.944;9.098;2023-01-30T13:45:04;100851.06;;;14.59;49.53
21109;BME280;10712;52.944;9.098;2023-01-30T13:47:51;100849.38;;;14.58;49.54
21109;BME280;10712;52.944;9.098;2023-01-30T13:50:45;100841.66;;;14.54;49.50
21109;BME280;10712;52.944;9.098;2023-01-30T13:55:56;100880.38;;;14.50;49.58
21109;BME280;10712;52.944;9.098;2023-01-30T13:58:45;100884.78;;;14.51;49.44
21109;BME280;10712;52.944;9.098;2023-01-30T14:01:12;100881.53;;;14.46;49.19
21109;BME280;10712;52.944;9.098;2023-01-30T14:03:41;100885.94;;;14.47;49.03
21109;BME280;10712;52.944;9.098;2023-01-30T14:06:44;100889.69;;;14.32;49.27
21109;BME280;10712;52.944;9.098;2023-01-30T14:09:25;100889.34;;;14.62;48.63
21109;BME280;10712;52.944;9.098;2023-01-30T14:11:59;100896.28;;;14.77;48.42
21109;BME280;10712;52.944;9.098;2023-01-30T14:14:31;100906.75;;;14.56;48.96
21109;BME280;10712;52.944;9.098;2023-01-30T14:17:15;100923.03;;;14.53;48.98
21109;BME280;10712;52.944;9.098;2023-01-30T14:22:49;100928.94;;;14.58;48.93
21109;BME280;10712;52.944;9.098;2023-01-30T14:27:49;100928.53;;;14.39;49.23
21109;BME280;10712;52.944;9.098;2023-01-30T14:30:50;100946.41;;;14.26;49.38
21109;BME280;10712;52.944;9.098;2023-01-30T14:38:41;100967.47;;;14.44;50.23
21109;BME280;10712;52.944;9.098;2023-01-30T14:41:26;100986.84;;;14.48;50.09
21109;BME280;10712;52.944;9.098;2023-01-30T14:43:52;100999.28;;;14.49;50.23
21109;BME280;10712;52.944;9.098;2023-01-30T14:49:18;101010.44;;;14.43;50.24
21109;BME280;10712;52.944;9.098;2023-01-30T14:51:46;101019.75;;;14.37;50.15
21109;BME280;10712;52.944;9.098;2023-01-30T14:56:57;101042.72;;;14.54;49.71
21109;BME280;10712;52.944;9.098;2023-01-30T14:59:47;101039.19;;;14.41;49.89
21109;BME280;10712;52.944;9.098;2023-01-30T15:02:18;101044.34;;;14.44;49.69
21109;BME280;10712;52.944;9.098;2023-01-30T15:10:23;101079.81;;;14.60;49.31